createdAt,value
2023-02-19T00:01:39.287Z,0.50
2023-02-19T00:04:12.570Z,0.40
2023-02-19T00:06:42.934Z,0.75
2023-02-19T00:09:16.146Z,0.52
2023-02-19T00:11:46.528Z,0.60
2023-02-19T00:14:19.696Z,0.68
2023-02-19T00:16:49.652Z,0.60
2023-02-19T00:19:21.647Z,0.55
2023-02-19T00:21:53.510Z,0.40
2023-02-19T00:24:25.063Z,0.57
2023-02-19T00:26:54.580Z,0.30
2023-02-19T00:29:25.268Z,0.50
2023-02-19T00:31:54.790Z,0.50
2023-02-19T00:34:24.390Z,0.65
2023-02-19T00:36:53.738Z,0.57
2023-02-19T00:39:24.730Z,0.20
2023-02-19T00:41:54.255Z,0.32
2023-02-19T00:44:23.871Z,0.40
2023-02-19T00:46:53.251Z,0.40
2023-02-19T00:50:37.799Z,0.40
2023-02-19T00:53:07.378Z,0.30
2023-02-19T00:55:36.773Z,0.20
2023-02-19T00:58:06.057Z,0.20
2023-02-19T01:00:35.372Z,0.57
2023-02-19T01:03:04.732Z,0.45
2023-02-19T01:05:34.113Z,0.50
2023-02-19T01:08:04.980Z,0.80
2023-02-19T01:10:34.321Z,1.55
2023-02-19T01:13:03.691Z,1.02
2023-02-19T01:15:34.935Z,1.45
2023-02-19T01:18:04.346Z,1.55
2023-02-19T01:20:34.098Z,5.85
2023-02-19T01:23:05.557Z,5.38
2023-02-19T01:25:34.906Z,5.75
2023-02-19T01:28:04.352Z,4.65
2023-02-19T01:30:37.265Z,1.02
2023-02-19T01:33:06.756Z,1.95
2023-02-19T01:35:36.325Z,1.95
2023-02-19T01:38:08.562Z,2.53
2023-02-19T01:40:38.134Z,2.38
2023-02-19T01:43:11.727Z,2.83
2023-02-19T01:45:45.186Z,3.50
2023-02-19T01:48:20.512Z,5.45
2023-02-19T01:50:55.262Z,6.82
2023-02-19T01:53:29.619Z,7.60
2023-02-19T01:56:02.441Z,12.23
2023-02-19T02:01:08.244Z,9.68
2023-02-19T02:03:40.896Z,4.85
2023-02-19T02:06:19.026Z,8.30
2023-02-19T02:09:08.228Z,4.88
2023-02-19T02:11:38.539Z,7.70
2023-02-19T02:14:07.968Z,1.67
2023-02-19T02:16:50.401Z,3.05
2023-02-19T02:19:52.578Z,2.70
2023-02-19T02:22:28.194Z,5.95
2023-02-19T02:25:42.412Z,1.08
2023-02-19T02:28:48.151Z,2.90
2023-02-19T02:31:21.875Z,1.25
2023-02-19T02:34:00.366Z,2.25
2023-02-19T02:36:34.266Z,1.60
2023-02-19T02:39:07.492Z,1.38
2023-02-19T02:41:37.045Z,0.47
2023-02-19T02:44:06.856Z,1.90
2023-02-19T02:46:42.745Z,2.08
2023-02-19T02:49:21.356Z,0.80
2023-02-19T02:51:55.238Z,0.80
2023-02-19T02:54:46.715Z,1.02
2023-02-19T02:57:17.696Z,2.10
2023-02-19T02:59:49.310Z,3.67
2023-02-19T03:02:24.590Z,2.05
2023-02-19T03:05:26.314Z,0.77
2023-02-19T03:08:00.354Z,2.88
2023-02-19T03:10:38.302Z,1.40
2023-02-19T03:13:29.410Z,1.95
2023-02-19T03:16:23.719Z,2.58
2023-02-19T03:19:14.924Z,2.60
2023-02-19T03:21:47.141Z,1.50
2023-02-19T03:24:36.372Z,3.92
2023-02-19T03:27:07.468Z,4.72
2023-02-19T03:29:40.190Z,4.55
2023-02-19T03:32:13.228Z,5.60
2023-02-19T03:34:53.296Z,5.40
2023-02-19T03:37:31.433Z,7.07
2023-02-19T03:40:01.074Z,7.47
2023-02-19T03:42:44.468Z,5.93
2023-02-19T03:45:34.499Z,6.10
2023-02-19T03:51:45.308Z,5.35
2023-02-19T03:54:20.370Z,8.73
2023-02-19T03:56:55.949Z,4.90
2023-02-19T03:59:34.650Z,5.38
2023-02-19T04:02:10.112Z,2.63
2023-02-19T04:04:45.212Z,3.22
2023-02-19T04:07:16.494Z,3.08
2023-02-19T04:09:50.072Z,2.00
2023-02-19T04:12:23.554Z,1.95
2023-02-19T04:14:58.987Z,2.03
2023-02-19T04:17:33.861Z,1.63
2023-02-19T04:20:08.979Z,1.80
2023-02-19T04:22:41.619Z,1.50
2023-02-19T04:25:11.931Z,1.52
2023-02-19T04:27:42.499Z,1.50
2023-02-19T04:30:15.816Z,1.10
2023-02-19T04:32:45.184Z,1.63
2023-02-19T04:35:14.573Z,0.85
2023-02-19T04:37:45.502Z,1.17
2023-02-19T04:40:14.923Z,0.82
2023-02-19T04:42:44.376Z,1.30
2023-02-19T04:45:13.768Z,0.90
2023-02-19T04:47:43.183Z,1.27
2023-02-19T04:50:13.034Z,0.80
2023-02-19T04:52:43.874Z,1.17
2023-02-19T04:55:13.512Z,1.38
2023-02-19T04:57:42.839Z,1.00
2023-02-19T05:00:13.991Z,1.50
2023-02-19T05:02:43.847Z,1.50
2023-02-19T05:05:13.197Z,1.65
2023-02-19T05:07:44.039Z,1.15
2023-02-19T05:10:13.359Z,1.52
2023-02-19T05:12:42.747Z,1.08
2023-02-19T05:15:12.174Z,0.90
2023-02-19T05:17:41.652Z,0.80
2023-02-19T05:20:12.306Z,0.60
2023-02-19T05:22:41.908Z,0.88
2023-02-19T05:25:12.678Z,0.95
2023-02-19T05:27:42.179Z,0.80
2023-02-19T05:30:13.630Z,1.88
2023-02-19T05:32:43.167Z,0.90
2023-02-19T05:35:12.501Z,1.88
2023-02-19T05:37:41.927Z,1.20
2023-02-19T05:40:13.461Z,2.10
2023-02-19T05:42:42.830Z,4.57
2023-02-19T05:45:12.267Z,3.20
2023-02-19T05:47:41.632Z,2.78
2023-02-19T05:50:11.189Z,3.05
2023-02-19T05:52:40.510Z,1.40
2023-02-19T05:55:11.855Z,0.82
2023-02-19T05:57:43.819Z,1.20
2023-02-19T06:00:15.297Z,1.03
2023-02-19T06:02:44.823Z,1.70
2023-02-19T06:05:14.876Z,2.05
2023-02-19T06:07:44.272Z,1.77
2023-02-19T06:10:15.528Z,1.55
2023-02-19T06:12:45.254Z,2.22
2023-02-19T06:15:14.688Z,5.32
2023-02-19T06:17:43.987Z,3.95
2023-02-19T06:20:13.737Z,4.47
2023-02-19T06:22:43.141Z,5.30
2023-02-19T06:25:14.047Z,5.90
2023-02-19T06:27:43.301Z,3.83
2023-02-19T06:30:14.693Z,3.38
2023-02-19T06:32:43.970Z,3.67
2023-02-19T06:35:13.434Z,5.45
2023-02-19T06:37:42.793Z,5.82
2023-02-19T06:40:14.390Z,4.05
2023-02-19T06:42:43.654Z,3.00
2023-02-19T06:45:13.014Z,1.58
2023-02-19T06:47:42.393Z,1.90
2023-02-19T06:51:37.954Z,2.80
2023-02-19T06:54:07.475Z,2.92
2023-02-19T06:56:39.760Z,2.58
2023-02-19T06:59:12.836Z,2.67
2023-02-19T07:01:43.093Z,1.40
2023-02-19T07:04:12.935Z,1.88
2023-02-19T07:06:43.854Z,3.47
2023-02-19T07:09:13.797Z,1.50
2023-02-19T07:11:43.454Z,0.90
2023-02-19T07:14:17.967Z,1.15
2023-02-19T07:16:48.115Z,1.25
2023-02-19T07:19:18.129Z,1.20
2023-02-19T07:21:48.992Z,1.10
2023-02-19T07:24:19.349Z,0.77
2023-02-19T07:26:48.753Z,0.68
2023-02-19T07:29:18.590Z,0.57
2023-02-19T07:31:48.872Z,1.23
2023-02-19T07:34:18.215Z,1.40
2023-02-19T07:36:49.146Z,0.70
2023-02-19T07:39:18.641Z,0.38
2023-02-19T07:41:48.099Z,0.65
2023-02-19T07:44:17.635Z,0.40
2023-02-19T07:46:47.492Z,0.70
2023-02-19T07:49:16.884Z,0.40
2023-02-19T07:51:47.895Z,0.40
2023-02-19T07:54:17.792Z,0.73
2023-02-19T07:56:47.353Z,0.45
2023-02-19T07:59:19.634Z,0.40
2023-02-19T08:02:20.917Z,0.40
2023-02-19T08:04:50.485Z,0.20
2023-02-19T08:07:21.281Z,0.20
2023-02-19T08:10:10.840Z,0.30
2023-02-19T08:12:57.565Z,0.82
2023-02-19T08:15:27.196Z,0.30
2023-02-19T08:17:56.744Z,0.45
2023-02-19T08:20:26.224Z,0.30
2023-02-19T08:22:57.270Z,0.20
2023-02-19T08:25:27.250Z,0.35
2023-02-19T08:27:56.834Z,0.40
2023-02-19T08:30:26.428Z,0.20
2023-02-19T08:32:56.306Z,0.30
2023-02-19T08:35:25.770Z,0.20
2023-02-19T08:38:00.157Z,0.30
2023-02-19T08:40:29.752Z,0.20
2023-02-19T08:43:05.156Z,0.15
2023-02-19T08:45:35.120Z,0.40
2023-02-19T08:48:04.735Z,0.57
2023-02-19T08:50:35.443Z,0.20
2023-02-19T08:53:08.009Z,0.10
2023-02-19T08:58:08.623Z,0.20
2023-02-19T09:00:38.026Z,0.10
2023-02-19T09:03:07.598Z,0.10
2023-02-19T09:05:37.052Z,0.10
2023-02-19T09:08:08.089Z,0.10
2023-02-19T09:10:37.717Z,0.22
2023-02-19T09:13:07.647Z,0.20
2023-02-19T09:15:38.845Z,0.20
2023-02-19T09:18:08.365Z,0.65
2023-02-19T09:20:37.816Z,0.20
2023-02-19T09:23:08.755Z,0.25
2023-02-19T09:25:38.197Z,0.45
2023-02-19T09:28:07.644Z,0.22
2023-02-19T09:30:37.199Z,0.10
2023-02-19T09:33:08.032Z,0.30
2023-02-19T09:35:40.948Z,0.38
2023-02-19T09:38:11.870Z,0.52
2023-02-19T09:40:42.151Z,0.10
2023-02-19T09:43:18.420Z,0.50
2023-02-19T09:45:48.119Z,0.10
2023-02-19T09:51:42.215Z,0.10
2023-02-19T09:54:20.179Z,0.30
2023-02-19T09:56:49.973Z,0.10
2023-02-19T09:59:23.727Z,0.10
2023-02-19T10:02:01.133Z,0.03
2023-02-19T10:04:30.710Z,0.10
2023-02-19T10:07:03.915Z,0.03
2023-02-19T10:09:33.720Z,0.20
2023-02-19T10:12:03.686Z,0.10
2023-02-19T10:14:40.237Z,0.10
2023-02-19T10:17:22.383Z,0.10
2023-02-19T10:19:52.155Z,0.20
2023-02-19T10:22:23.205Z,0.10
2023-02-19T10:24:56.763Z,0.32
2023-02-19T10:27:32.169Z,0.20
2023-02-19T10:30:03.236Z,0.10
2023-02-19T10:32:32.729Z,0.63
2023-02-19T10:35:19.849Z,0.10
2023-02-19T10:37:52.976Z,0.10
2023-02-19T10:40:26.283Z,0.75
2023-02-19T10:42:59.417Z,0.10
2023-02-19T10:45:36.862Z,0.20
2023-02-19T10:48:07.707Z,0.10
2023-02-19T10:50:44.828Z,0.40
2023-02-19T10:53:24.900Z,0.25
2023-02-19T10:56:10.750Z,0.30
2023-02-19T10:58:42.527Z,0.20
2023-02-19T11:01:20.168Z,0.20
2023-02-19T11:03:51.634Z,0.30
2023-02-19T11:06:28.238Z,0.15
2023-02-19T11:09:02.044Z,0.30
2023-02-19T11:11:35.914Z,0.30
2023-02-19T11:14:15.091Z,0.55
2023-02-19T11:16:48.133Z,0.20
2023-02-19T11:19:32.752Z,0.10
2023-02-19T11:22:04.355Z,0.20
2023-02-19T11:24:38.324Z,0.10
2023-02-19T11:27:19.732Z,0.50
2023-02-19T11:29:49.569Z,0.40
2023-02-19T11:32:31.530Z,0.20
2023-02-19T11:35:22.805Z,0.10
2023-02-19T11:38:00.631Z,0.20
2023-02-19T11:40:42.798Z,0.40
2023-02-19T11:43:31.551Z,0.30
2023-02-19T11:46:09.793Z,0.20
2023-02-19T11:48:56.144Z,0.10
2023-02-19T11:51:47.618Z,0.17
2023-02-19T11:54:51.199Z,0.10
2023-02-19T11:57:45.943Z,0.10
2023-02-19T12:00:26.650Z,0.10
2023-02-19T12:03:37.094Z,0.10
2023-02-19T12:06:21.208Z,0.40
2023-02-19T12:09:14.498Z,0.10
2023-02-19T12:12:17.330Z,0.20
2023-02-19T12:15:41.494Z,0.20
2023-02-19T12:19:01.411Z,0.38
2023-02-19T12:21:51.726Z,0.20
2023-02-19T12:25:05.208Z,0.20
2023-02-19T12:27:56.424Z,0.30
2023-02-19T12:30:55.049Z,0.30
2023-02-19T12:34:19.676Z,0.15
2023-02-19T12:37:02.132Z,0.30
2023-02-19T12:39:41.714Z,0.17
2023-02-19T12:42:29.936Z,0.30
2023-02-19T12:45:04.504Z,0.20
2023-02-19T12:47:42.318Z,0.30
2023-02-19T12:51:45.309Z,0.25
2023-02-19T12:54:23.963Z,0.30
2023-02-19T12:57:02.768Z,0.43
2023-02-19T12:59:38.555Z,0.30
2023-02-19T13:02:17.946Z,0.43
2023-02-19T13:04:56.242Z,0.28
2023-02-19T13:07:33.879Z,0.20
2023-02-19T13:10:20.824Z,0.20
2023-02-19T13:12:53.733Z,0.40
2023-02-19T13:15:32.910Z,0.43
2023-02-19T13:18:06.630Z,0.40
2023-02-19T13:20:40.422Z,0.40
2023-02-19T13:23:35.062Z,1.08
2023-02-19T13:26:44.708Z,0.75
2023-02-19T13:29:41.174Z,0.20
2023-02-19T13:32:35.923Z,0.55
2023-02-19T13:35:25.839Z,0.98
2023-02-19T13:37:56.982Z,1.17
2023-02-19T13:40:35.191Z,1.90
2023-02-19T13:43:07.322Z,0.20
2023-02-19T13:45:41.516Z,3.35
2023-02-19T13:48:28.575Z,0.60
2023-02-19T13:51:49.555Z,2.05
2023-02-19T13:54:29.249Z,0.70
2023-02-19T13:57:30.193Z,0.70
2023-02-19T14:00:01.120Z,0.90
2023-02-19T14:02:36.585Z,0.40
2023-02-19T14:05:10.241Z,1.65
2023-02-19T14:08:04.450Z,0.60
2023-02-19T14:11:05.149Z,1.92
2023-02-19T14:14:10.114Z,1.52
2023-02-19T14:17:08.668Z,4.45
2023-02-19T14:19:54.275Z,14.52
2023-02-19T14:23:11.053Z,8.55
2023-02-19T14:25:48.267Z,0.57
2023-02-19T14:28:37.215Z,3.28
2023-02-19T14:31:36.892Z,1.35
2023-02-19T14:34:15.231Z,2.72
2023-02-19T14:36:49.133Z,3.75
2023-02-19T14:39:22.578Z,6.43
2023-02-19T14:41:55.969Z,1.42
2023-02-19T14:44:28.829Z,5.30
2023-02-19T14:47:06.951Z,8.77
2023-02-19T14:49:46.028Z,5.50
2023-02-19T14:52:24.938Z,3.00
2023-02-19T14:54:58.830Z,0.63
2023-02-19T14:57:31.421Z,0.20
2023-02-19T15:02:33.891Z,0.20
2023-02-19T15:05:03.429Z,2.90
2023-02-19T15:07:35.792Z,1.17
2023-02-19T15:10:07.515Z,0.98
2023-02-19T15:12:53.935Z,1.67
2023-02-19T15:15:27.205Z,3.08
2023-02-19T15:18:00.614Z,3.35
2023-02-19T15:20:34.416Z,3.80
2023-02-19T15:23:07.507Z,2.63
2023-02-19T15:25:39.508Z,0.75
2023-02-19T15:28:27.571Z,0.20
2023-02-19T15:31:15.882Z,0.15
2023-02-19T15:33:54.570Z,0.10
2023-02-19T15:36:32.891Z,0.20
2023-02-19T15:39:04.995Z,0.30
2023-02-19T15:41:36.959Z,0.60
2023-02-19T15:44:32.610Z,0.97
2023-02-19T15:47:09.384Z,0.40
2023-02-19T15:51:45.012Z,0.20
2023-02-19T15:54:27.214Z,0.20
2023-02-19T15:57:01.466Z,0.50
2023-02-19T15:59:37.834Z,0.38
2023-02-19T16:02:09.932Z,0.32
2023-02-19T16:04:46.446Z,0.55
2023-02-19T16:07:29.035Z,1.48
2023-02-19T16:10:21.579Z,0.80
2023-02-19T16:13:01.897Z,0.60
2023-02-19T16:15:34.559Z,0.45
2023-02-19T16:18:04.506Z,1.45
2023-02-19T16:20:37.053Z,2.03
2023-02-19T16:23:15.939Z,1.90
2023-02-19T16:25:46.611Z,1.35
2023-02-19T16:28:22.320Z,1.70
2023-02-19T16:30:59.701Z,1.27
2023-02-19T16:33:46.515Z,0.25
2023-02-19T16:36:38.055Z,0.40
2023-02-19T16:39:23.271Z,1.13
2023-02-19T16:42:20.060Z,0.30
2023-02-19T16:44:50.445Z,0.30
2023-02-19T16:47:33.061Z,0.43
2023-02-19T16:50:09.092Z,0.70
2023-02-19T16:52:42.519Z,0.40
2023-02-19T16:55:16.333Z,0.28
2023-02-19T16:57:45.744Z,0.20
2023-02-19T17:00:20.496Z,0.52
2023-02-19T17:02:52.373Z,0.50
2023-02-19T17:05:24.196Z,0.77
2023-02-19T17:07:53.897Z,0.67
2023-02-19T17:10:27.280Z,0.47
2023-02-19T17:12:58.373Z,0.50
2023-02-19T17:15:27.993Z,0.40
2023-02-19T17:17:57.610Z,0.22
2023-02-19T17:20:31.666Z,0.45
2023-02-19T17:23:01.212Z,0.10
2023-02-19T17:25:32.295Z,0.20
2023-02-19T17:28:01.891Z,0.20
2023-02-19T17:30:33.304Z,0.10
2023-02-19T17:33:02.873Z,0.30
2023-02-19T17:35:32.276Z,0.20
2023-02-19T17:38:01.713Z,0.80
2023-02-19T17:40:34.660Z,0.25
2023-02-19T17:43:04.297Z,0.20
2023-02-19T17:45:33.948Z,0.20
2023-02-19T17:48:03.581Z,0.30
2023-02-19T17:50:34.573Z,0.43
2023-02-19T17:53:03.906Z,0.20
2023-02-19T17:55:34.839Z,0.30
2023-02-19T17:58:04.243Z,0.28
2023-02-19T18:00:34.550Z,0.25
2023-02-19T18:03:03.989Z,0.40
2023-02-19T18:05:33.330Z,0.45
2023-02-19T18:08:02.786Z,0.30
2023-02-19T18:10:33.593Z,0.17
2023-02-19T18:13:02.973Z,0.40
2023-02-19T18:15:32.433Z,0.50
2023-02-19T18:18:02.514Z,1.65
2023-02-19T18:20:32.408Z,0.63
2023-02-19T18:23:01.876Z,0.35
2023-02-19T18:25:31.343Z,0.25
2023-02-19T18:28:02.519Z,0.20
2023-02-19T18:30:32.917Z,0.30
2023-02-19T18:33:02.439Z,0.47
2023-02-19T18:35:33.646Z,0.60
2023-02-19T18:38:04.134Z,2.53
2023-02-19T18:40:33.457Z,1.08
2023-02-19T18:43:04.350Z,0.50
2023-02-19T18:45:36.298Z,1.20
2023-02-19T18:51:37.944Z,0.82
2023-02-19T18:54:08.154Z,0.65
2023-02-19T18:56:44.530Z,0.50
2023-02-19T18:59:14.844Z,0.68
2023-02-19T19:01:45.199Z,0.43
2023-02-19T19:04:14.958Z,0.65
2023-02-19T19:06:45.872Z,0.50
2023-02-19T19:09:15.487Z,0.70
2023-02-19T19:11:46.821Z,0.50
2023-02-19T19:14:16.555Z,0.20
2023-02-19T19:16:46.039Z,0.60
2023-02-19T19:19:16.704Z,0.55
2023-02-19T19:21:53.227Z,0.40
2023-02-19T19:24:24.053Z,0.75
2023-02-19T19:26:54.626Z,0.75
2023-02-19T19:29:24.880Z,0.80
2023-02-19T19:31:54.378Z,0.45
2023-02-19T19:34:23.883Z,0.70
2023-02-19T19:36:54.832Z,1.23
2023-02-19T19:39:24.505Z,1.05
2023-02-19T19:41:57.236Z,1.33
2023-02-19T19:46:56.530Z,1.13
2023-02-19T19:49:25.976Z,0.43
2023-02-19T19:52:01.350Z,0.77
2023-02-19T19:54:31.118Z,0.98
2023-02-19T19:57:00.620Z,2.83
2023-02-19T19:59:30.044Z,1.77
2023-02-19T20:02:02.017Z,2.50
2023-02-19T20:04:32.080Z,2.27
2023-02-19T20:07:03.419Z,2.70
2023-02-19T20:09:32.853Z,2.80
2023-02-19T20:12:02.260Z,2.83
2023-02-19T20:14:31.684Z,2.80
2023-02-19T20:17:01.176Z,2.97
2023-02-19T20:19:30.533Z,1.63
2023-02-19T20:22:01.556Z,0.50
2023-02-19T20:24:31.304Z,0.30
2023-02-19T20:27:03.129Z,0.40
2023-02-19T20:29:34.557Z,0.20
2023-02-19T20:32:04.827Z,0.32
2023-02-19T20:34:34.631Z,0.30
2023-02-19T20:37:05.660Z,0.22
2023-02-19T20:39:38.113Z,0.40
2023-02-19T20:42:08.679Z,0.80
2023-02-19T20:44:38.129Z,0.55
2023-02-19T20:47:07.993Z,1.00
2023-02-19T20:49:37.441Z,0.85
2023-02-19T20:52:10.212Z,1.10
2023-02-19T20:57:09.079Z,1.00
2023-02-19T20:59:39.111Z,1.40
2023-02-19T21:02:23.379Z,2.03
2023-02-19T21:04:53.024Z,1.45
2023-02-19T21:07:23.892Z,2.30
2023-02-19T21:09:53.930Z,3.47
2023-02-19T21:12:24.171Z,4.82
2023-02-19T21:14:53.744Z,3.85
2023-02-19T21:17:23.282Z,3.67
2023-02-19T21:19:52.640Z,4.15
2023-02-19T21:22:23.408Z,3.45
2023-02-19T21:24:53.919Z,3.85
2023-02-19T21:27:23.416Z,3.63
2023-02-19T21:29:52.938Z,3.50
2023-02-19T21:32:22.410Z,3.65
2023-02-19T21:34:51.860Z,5.00
2023-02-19T21:37:22.842Z,6.50
2023-02-19T21:39:52.483Z,6.50
2023-02-19T21:42:21.947Z,6.60
2023-02-19T21:44:51.431Z,6.80
2023-02-19T21:47:20.783Z,5.68
2023-02-19T21:51:40.173Z,5.88
2023-02-19T21:54:14.856Z,5.28
2023-02-19T21:56:44.693Z,7.53
2023-02-19T21:59:14.227Z,7.18
2023-02-19T22:01:43.848Z,6.15
2023-02-19T22:04:16.438Z,4.38
2023-02-19T22:06:47.746Z,3.60
2023-02-19T22:09:18.138Z,3.25
2023-02-19T22:11:47.891Z,4.05
2023-02-19T22:14:18.481Z,6.90
2023-02-19T22:16:48.152Z,8.57
2023-02-19T22:19:20.848Z,13.43
2023-02-19T22:21:51.807Z,10.18
2023-02-19T22:24:23.514Z,7.68
2023-02-19T22:26:57.351Z,7.32
2023-02-19T22:29:27.305Z,6.55
2023-02-19T22:31:56.992Z,5.30
2023-02-19T22:34:26.511Z,7.80
2023-02-19T22:36:57.368Z,9.00
2023-02-19T22:39:28.424Z,5.90
2023-02-19T22:41:57.973Z,6.65
2023-02-19T22:44:27.445Z,8.18
2023-02-19T22:46:58.333Z,8.32
2023-02-19T22:49:27.741Z,7.28
2023-02-19T22:52:04.605Z,6.60
2023-02-19T22:54:34.139Z,5.88
2023-02-19T22:57:03.408Z,6.30
2023-02-19T22:59:33.127Z,5.90
2023-02-19T23:02:02.565Z,6.38
2023-02-19T23:04:32.016Z,5.97
2023-02-19T23:07:02.941Z,5.32
2023-02-19T23:09:32.609Z,4.90
2023-02-19T23:12:07.705Z,4.93
2023-02-19T23:14:37.890Z,5.90
2023-02-19T23:17:07.476Z,5.50
2023-02-19T23:19:38.051Z,4.95
2023-02-19T23:22:09.275Z,5.72
2023-02-19T23:24:38.690Z,4.95
2023-02-19T23:27:08.033Z,5.90
2023-02-19T23:29:37.326Z,5.40
2023-02-19T23:32:07.038Z,5.38
2023-02-19T23:34:37.294Z,5.05
2023-02-19T23:37:08.102Z,5.80
2023-02-19T23:39:37.414Z,5.63
2023-02-19T23:42:06.824Z,5.45
2023-02-19T23:44:36.287Z,3.90
2023-02-19T23:47:05.642Z,3.63
2023-02-19T23:49:35.153Z,3.90
2023-02-19T23:52:04.648Z,4.38
2023-02-19T23:54:35.451Z,4.22
2023-02-19T23:57:04.909Z,3.78
2023-02-19T23:59:34.209Z,3.78
